Time;durP1;ratioP1;P1;durP2;ratioP2;P2;SDS_P1;SDS_P2;PMS_P1;PMS_P2;Temp;Humidity;BMP_temperature;BMP_pressure;BME280_temperature;BME280_humidity;BME280_pressure;Samples;Min_cycle;Max_cycle;Signal;HPM_P1;HPM_P2
2024/01/28 00:02:25;;;;;;;3.60;2.33;;;-0.20;99.90;;;;;;5033221;28;20698;-77
2024/01/28 00:04:51;;;;;;;3.45;2.40;;;-0.10;99.90;;;;;;5033130;28;20210;-77
2024/01/28 00:07:18;;;;;;;3.45;2.33;;;0.00;99.90;;;;;;5033016;28;20263;-77
2024/01/28 00:09:45;;;;;;;3.65;2.60;;;0.00;99.90;;;;;;5032919;28;20709;-76
2024/01/28 00:12:13;;;;;;;4.13;2.20;;;0.10;99.90;;;;;;5032529;28;20229;-77
2024/01/28 00:14:40;;;;;;;2.40;2.15;;;0.10;99.90;;;;;;5032242;28;20226;-77
2024/01/28 00:17:07;;;;;;;4.07;2.83;;;0.30;99.90;;;;;;5032346;28;20232;-76
2024/01/28 00:19:33;;;;;;;4.35;2.47;;;0.40;99.90;;;;;;5032363;28;20207;-77
2024/01/28 00:22:00;;;;;;;2.10;1.90;;;0.50;99.90;;;;;;5032020;28;20245;-77
2024/01/28 00:24:27;;;;;;;3.00;2.22;;;0.60;99.90;;;;;;5032018;28;20202;-77
2024/01/28 00:26:55;;;;;;;2.88;2.63;;;0.60;99.90;;;;;;5032589;28;20206;-77
2024/01/28 00:29:28;;;;;;;5.45;2.53;;;0.60;99.90;;;;;;5032181;28;20205;-77
2024/01/28 00:31:55;;;;;;;3.90;3.03;;;0.60;99.90;;;;;;5032485;28;20205;-77
2024/01/28 00:34:22;;;;;;;3.53;2.80;;;0.60;99.90;;;;;;5031809;28;20230;-77
2024/01/28 00:36:49;;;;;;;6.07;3.15;;;0.60;99.90;;;;;;5032238;28;20221;-77
2024/01/28 00:39:15;;;;;;;4.22;3.17;;;0.60;99.90;;;;;;5031854;28;20632;-77
2024/01/28 00:41:42;;;;;;;5.70;3.20;;;0.60;99.90;;;;;;5031784;28;20201;-76
2024/01/28 00:44:09;;;;;;;5.38;3.25;;;0.50;99.90;;;;;;5031875;28;20209;-77
2024/01/28 00:46:37;;;;;;;6.20;2.60;;;0.40;99.90;;;;;;5031640;28;20211;-77
2024/01/28 00:49:04;;;;;;;5.93;2.25;;;0.30;99.90;;;;;;5031594;28;20218;-77
2024/01/28 00:51:32;;;;;;;2.75;2.40;;;0.30;99.90;;;;;;5031961;28;20605;-77
2024/01/28 00:53:59;;;;;;;4.22;1.80;;;0.20;99.90;;;;;;5031809;28;20258;-76
2024/01/28 00:56:25;;;;;;;3.80;2.63;;;0.10;99.90;;;;;;5031110;28;20231;-77
2024/01/28 00:58:52;;;;;;;2.47;1.98;;;0.10;99.90;;;;;;5031728;28;20209;-77
2024/01/28 01:01:19;;;;;;;2.92;2.60;;;0.00;99.90;;;;;;5031475;28;20216;-77
2024/01/28 01:03:48;;;;;;;2.35;2.13;;;-0.10;99.90;;;;;;5031694;28;20643;-76
2024/01/28 01:06:14;;;;;;;3.40;2.33;;;-0.20;99.90;;;;;;5031435;28;20207;-77
2024/01/28 01:08:41;;;;;;;3.28;2.63;;;-0.30;99.90;;;;;;5031528;28;20210;-77
2024/01/28 01:11:08;;;;;;;6.50;2.47;;;-0.30;99.90;;;;;;5031602;28;20214;-77
2024/01/28 01:13:35;;;;;;;1.52;1.42;;;-0.40;99.90;;;;;;5031871;28;20226;-77
2024/01/28 01:16:02;;;;;;;3.08;2.53;;;-0.50;99.90;;;;;;5031657;28;20230;-77
2024/01/28 01:18:29;;;;;;;4.10;2.40;;;-0.50;99.90;;;;;;5031868;28;20210;-77
2024/01/28 01:20:57;;;;;;;3.53;2.40;;;-0.50;99.90;;;;;;5032680;28;20598;-77
2024/01/28 01:23:24;;;;;;;2.65;2.45;;;-0.50;99.90;;;;;;5033608;28;20237;-77
2024/01/28 01:25:51;;;;;;;3.83;2.55;;;-0.60;99.90;;;;;;5032969;28;20206;-78
2024/01/28 01:28:18;;;;;;;3.65;2.33;;;-0.70;99.90;;;;;;5031289;28;20206;-75
2024/01/28 01:30:45;;;;;;;4.18;2.90;;;-0.70;99.90;;;;;;5031108;28;20209;-75
2024/01/28 01:33:12;;;;;;;3.28;2.65;;;-0.70;99.90;;;;;;5031148;28;20616;-75
2024/01/28 01:35:38;;;;;;;2.42;2.22;;;-0.70;99.90;;;;;;5030855;28;20233;-75
2024/01/28 01:38:07;;;;;;;3.15;2.25;;;-0.80;99.90;;;;;;5033903;28;20212;-75
2024/01/28 01:40:33;;;;;;;5.07;3.42;;;-0.90;99.90;;;;;;5037518;28;20217;-75
2024/01/28 01:43:03;;;;;;;4.38;2.78;;;-0.90;99.90;;;;;;5037707;28;20232;-75
2024/01/28 01:45:30;;;;;;;3.08;2.60;;;-0.90;99.90;;;;;;5037354;28;20259;-75
2024/01/28 01:47:56;;;;;;;2.33;2.15;;;-0.90;99.90;;;;;;5037680;28;20210;-75
2024/01/28 01:50:23;;;;;;;5.28;2.85;;;-1.00;99.90;;;;;;5037610;28;20212;-75
2024/01/28 01:52:50;;;;;;;3.72;3.17;;;-1.00;99.90;;;;;;5037650;28;20713;-75
2024/01/28 01:55:18;;;;;;;3.58;2.45;;;-1.00;99.90;;;;;;5037056;28;20249;-75
2024/01/28 01:57:45;;;;;;;4.78;2.58;;;-1.10;99.90;;;;;;5037800;28;20216;-75
2024/01/28 02:00:14;;;;;;;4.40;2.85;;;-1.00;99.90;;;;;;5037355;28;20203;-75
2024/01/28 02:02:44;;;;;;;2.47;2.15;;;-1.10;99.90;;;;;;5037736;28;20222;-75
2024/01/28 02:05:11;;;;;;;2.58;2.35;;;-1.10;99.90;;;;;;5037169;28;20251;-75
2024/01/28 02:07:38;;;;;;;8.40;2.88;;;-1.10;99.90;;;;;;5037429;28;20604;-75
2024/01/28 02:10:05;;;;;;;6.15;3.80;;;-1.20;99.90;;;;;;5037273;28;20229;-75
2024/01/28 02:12:33;;;;;;;4.93;1.83;;;-1.20;99.90;;;;;;5037291;28;20225;-75
2024/01/28 02:15:09;;;;;;;3.67;2.30;;;-1.20;99.90;;;;;;5037244;28;20236;-76
2024/01/28 02:17:36;;;;;;;3.40;2.88;;;-1.20;99.90;;;;;;5037481;28;20205;-75
2024/01/28 02:20:03;;;;;;;3.88;2.63;;;-1.20;99.90;;;;;;5037104;28;20220;-75
2024/01/28 02:22:30;;;;;;;3.70;2.75;;;-1.20;99.90;;;;;;5037553;28;20599;-75
2024/01/28 02:24:58;;;;;;;2.70;2.47;;;-1.20;99.90;;;;;;5036953;28;20205;-75
2024/01/28 02:27:25;;;;;;;2.45;2.25;;;-1.20;99.90;;;;;;5037351;28;20686;-75
2024/01/28 02:29:51;;;;;;;2.50;2.30;;;-1.20;99.90;;;;;;5037486;28;20201;-75
2024/01/28 02:32:19;;;;;;;3.92;2.25;;;-1.20;99.90;;;;;;5037135;28;20612;-75
2024/01/28 02:34:46;;;;;;;2.30;2.03;;;-1.30;99.90;;;;;;5036736;28;20213;-75
2024/01/28 02:37:13;;;;;;;6.32;3.40;;;-1.30;99.90;;;;;;5037190;28;20675;-75
2024/01/28 02:39:40;;;;;;;3.60;2.70;;;-1.40;99.90;;;;;;5037311;28;20206;-75
2024/01/28 02:42:08;;;;;;;2.88;2.58;;;-1.40;99.90;;;;;;5036974;28;20596;-75
2024/01/28 02:44:35;;;;;;;7.95;3.53;;;-1.40;99.90;;;;;;5036873;28;20210;-75
2024/01/28 02:47:02;;;;;;;5.13;2.53;;;-1.50;99.90;;;;;;5037157;28;20201;-75
2024/01/28 02:49:29;;;;;;;5.90;2.50;;;-1.50;99.90;;;;;;5034468;28;20638;-75
2024/01/28 02:51:55;;;;;;;4.28;2.80;;;-1.50;99.90;;;;;;5033896;28;20206;-75
2024/01/28 02:54:23;;;;;;;3.53;2.80;;;-1.50;99.90;;;;;;5033579;28;20205;-74
2024/01/28 02:56:50;;;;;;;6.32;3.10;;;-1.50;99.90;;;;;;5034019;28;20264;-75
2024/01/28 02:59:18;;;;;;;3.97;2.72;;;-1.60;99.90;;;;;;5033863;28;20267;-75
2024/01/28 03:01:45;;;;;;;2.25;2.05;;;-1.60;99.90;;;;;;5033947;28;20647;-75
2024/01/28 03:04:12;;;;;;;2.88;2.50;;;-1.60;99.90;;;;;;5033738;28;20256;-75
2024/01/28 03:06:40;;;;;;;3.38;2.28;;;-1.60;99.90;;;;;;5033392;28;20202;-75
2024/01/28 03:09:07;;;;;;;2.13;1.92;;;-1.70;99.90;;;;;;5033543;28;20273;-75
2024/01/28 03:11:34;;;;;;;2.97;2.17;;;-1.70;99.90;;;;;;5033608;28;20264;-75
2024/01/28 03:14:00;;;;;;;4.07;2.20;;;-1.70;99.90;;;;;;5033838;28;20277;-75
2024/01/28 03:16:28;;;;;;;2.92;2.10;;;-1.70;99.90;;;;;;5033178;28;20229;-75
2024/01/28 03:18:55;;;;;;;4.25;3.50;;;-1.70;99.90;;;;;;5033670;28;20239;-75
2024/01/28 03:21:22;;;;;;;3.55;3.00;;;-1.80;99.90;;;;;;5033344;28;20217;-76
2024/01/28 03:23:49;;;;;;;3.20;2.80;;;-1.80;99.90;;;;;;5033576;28;20230;-76
2024/01/28 03:26:18;;;;;;;3.03;2.22;;;-1.80;99.90;;;;;;5033257;28;20209;-76
2024/01/28 03:28:44;;;;;;;4.05;2.72;;;-1.80;99.90;;;;;;5033802;28;20234;-76
2024/01/28 03:31:11;;;;;;;3.30;3.00;;;-1.80;99.90;;;;;;5033484;28;20571;-76
2024/01/28 03:33:40;;;;;;;3.53;2.90;;;-1.80;99.90;;;;;;5033621;28;20232;-76
2024/01/28 03:36:08;;;;;;;2.00;1.90;;;-1.80;99.90;;;;;;5033284;28;20607;-76
2024/01/28 03:38:34;;;;;;;2.50;2.30;;;-1.80;99.90;;;;;;5033886;28;20297;-76
2024/01/28 03:41:01;;;;;;;4.15;2.60;;;-1.80;99.90;;;;;;5033765;28;20205;-76
2024/01/28 03:43:28;;;;;;;4.13;2.13;;;-1.80;99.90;;;;;;5033627;28;20236;-76
2024/01/28 03:45:54;;;;;;;2.83;2.63;;;-1.80;99.90;;;;;;5033515;28;20220;-76
2024/01/28 03:48:21;;;;;;;4.10;2.85;;;-1.80;99.90;;;;;;5033219;28;20571;-76
2024/01/28 03:50:49;;;;;;;5.00;2.75;;;-1.80;99.90;;;;;;5032765;28;20221;-76
2024/01/28 03:53:16;;;;;;;2.10;1.85;;;-1.80;99.90;;;;;;5032794;28;20225;-76
2024/01/28 03:55:45;;;;;;;5.15;2.50;;;-1.90;99.90;;;;;;5032639;28;20677;-76
2024/01/28 03:58:12;;;;;;;2.90;2.50;;;-2.00;99.90;;;;;;5032774;28;20208;-75
2024/01/28 04:00:39;;;;;;;5.03;2.63;;;-2.00;99.90;;;;;;5032306;28;20309;-76
2024/01/28 04:03:06;;;;;;;1.60;1.50;;;-2.00;99.90;;;;;;5032665;28;20236;-76
2024/01/28 04:05:33;;;;;;;3.88;2.22;;;-2.00;99.90;;;;;;5032394;28;20252;-76
2024/01/28 04:08:02;;;;;;;2.63;2.42;;;-2.00;99.90;;;;;;5032577;28;20220;-76
2024/01/28 04:10:28;;;;;;;2.70;2.13;;;-2.00;99.90;;;;;;5032262;28;20300;-76
2024/01/28 04:12:55;;;;;;;2.90;2.70;;;-2.00;99.90;;;;;;5032580;28;20234;-76
2024/01/28 04:15:22;;;;;;;6.82;3.83;;;-2.00;99.90;;;;;;5032280;28;20229;-76
2024/01/28 04:17:48;;;;;;;7.05;3.20;;;-2.00;99.90;;;;;;5032601;28;20217;-75
2024/01/28 04:20:15;;;;;;;3.17;2.40;;;-2.00;99.90;;;;;;5032268;28;20587;-76
2024/01/28 04:22:42;;;;;;;2.20;2.00;;;-2.10;99.90;;;;;;5032238;28;20225;-76
2024/01/28 04:25:10;;;;;;;4.35;3.03;;;-2.00;99.90;;;;;;5031922;28;20690;-75
2024/01/28 04:27:37;;;;;;;3.75;2.80;;;-2.00;99.90;;;;;;5032501;28;20201;-76
2024/01/28 04:30:05;;;;;;;2.22;2.03;;;-2.00;99.90;;;;;;5031875;28;20690;-75
2024/01/28 04:32:32;;;;;;;6.20;3.40;;;-2.00;99.90;;;;;;5032142;28;20225;-76
2024/01/28 04:34:58;;;;;;;4.65;3.30;;;-2.00;99.90;;;;;;5031710;28;20217;-76
2024/01/28 04:37:26;;;;;;;2.83;2.63;;;-2.00;99.90;;;;;;5031933;28;20222;-75
2024/01/28 04:39:54;;;;;;;2.70;2.47;;;-2.00;99.90;;;;;;5031834;28;20209;-76
2024/01/28 04:42:23;;;;;;;3.53;3.00;;;-2.00;99.90;;;;;;5031773;28;20229;-76
2024/01/28 04:44:49;;;;;;;3.15;2.85;;;-2.00;99.90;;;;;;5031717;28;20214;-76
2024/01/28 04:47:16;;;;;;;4.75;2.72;;;-2.00;99.90;;;;;;5031812;28;20216;-76
2024/01/28 04:49:43;;;;;;;2.15;1.88;;;-2.10;99.90;;;;;;5031793;28;20210;-76
2024/01/28 04:52:10;;;;;;;2.55;2.35;;;-2.10;99.90;;;;;;5031778;28;20703;-76
2024/01/28 04:54:36;;;;;;;4.10;2.22;;;-2.10;99.90;;;;;;5031513;28;20228;-76
2024/01/28 04:57:05;;;;;;;4.63;3.40;;;-2.10;99.90;;;;;;5031642;28;20233;-76
2024/01/28 04:59:33;;;;;;;4.40;3.20;;;-2.10;99.90;;;;;;5031561;28;20216;-76
2024/01/28 05:02:00;;;;;;;9.52;2.50;;;-2.20;99.90;;;;;;5031536;28;20213;-75
2024/01/28 05:04:26;;;;;;;2.60;2.40;;;-2.20;99.90;;;;;;5031231;28;20300;-76
2024/01/28 05:06:53;;;;;;;2.50;2.30;;;-2.20;99.90;;;;;;5031681;28;20208;-76
2024/01/28 05:09:20;;;;;;;2.20;2.03;;;-2.30;99.90;;;;;;5031591;28;20213;-76
2024/01/28 05:11:47;;;;;;;3.85;2.97;;;-2.30;99.90;;;;;;5031419;28;20233;-76
2024/01/28 05:14:14;;;;;;;2.55;2.35;;;-2.30;99.90;;;;;;5030910;28;20214;-76
2024/01/28 05:16:47;;;;;;;4.03;2.72;;;-2.30;99.90;;;;;;5031075;28;20229;-76
2024/01/28 05:19:13;;;;;;;3.20;2.17;;;-2.30;99.90;;;;;;5031374;28;20233;-76
2024/01/28 05:21:40;;;;;;;3.15;2.85;;;-2.30;99.90;;;;;;5030821;28;20213;-76
2024/01/28 05:24:07;;;;;;;2.83;2.63;;;-2.30;99.90;;;;;;5031280;28;20205;-76
2024/01/28 05:26:34;;;;;;;4.88;2.47;;;-2.30;99.90;;;;;;5031132;28;20205;-76
2024/01/28 05:29:05;;;;;;;2.83;2.22;;;-2.30;99.90;;;;;;5031311;28;20319;-76
2024/01/28 05:31:32;;;;;;;2.47;2.25;;;-2.30;99.90;;;;;;5031513;28;20201;-76
2024/01/28 05:34:00;;;;;;;2.58;2.00;;;-2.30;99.90;;;;;;5031328;28;20221;-76
2024/01/28 05:36:27;;;;;;;4.47;2.38;;;-2.40;99.90;;;;;;5030757;28;20236;-76
2024/01/28 05:38:55;;;;;;;3.55;2.13;;;-2.40;99.90;;;;;;5031178;28;20209;-76
2024/01/28 05:41:22;;;;;;;2.30;2.15;;;-2.40;99.90;;;;;;5031112;28;20210;-76
2024/01/28 05:43:48;;;;;;;2.78;2.20;;;-2.40;99.90;;;;;;5031172;28;20301;-76
2024/01/28 05:46:15;;;;;;;5.50;2.63;;;-2.50;99.90;;;;;;5030871;28;20201;-76
2024/01/28 05:48:42;;;;;;;3.28;2.22;;;-2.50;99.90;;;;;;5031165;28;20217;-76
2024/01/28 05:51:10;;;;;;;5.28;3.13;;;-2.50;99.90;;;;;;5030929;28;20675;-75
2024/01/28 05:53:37;;;;;;;2.58;2.38;;;-2.50;99.90;;;;;;5031124;28;20249;-76
2024/01/28 05:56:06;;;;;;;3.30;3.00;;;-2.50;99.90;;;;;;5030748;28;20225;-76
2024/01/28 05:58:32;;;;;;;1.92;1.63;;;-2.50;99.90;;;;;;5031027;28;20680;-76
2024/01/28 06:01:03;;;;;;;2.78;2.53;;;-2.50;99.90;;;;;;5030857;28;20663;-76
2024/01/28 06:03:30;;;;;;;1.52;1.42;;;-2.50;99.90;;;;;;5030851;28;20226;-76
2024/01/28 06:05:57;;;;;;;2.65;1.85;;;-2.50;99.90;;;;;;5030699;28;20586;-76
2024/01/28 06:08:25;;;;;;;2.53;2.28;;;-2.50;99.90;;;;;;5030998;28;20216;-76
2024/01/28 06:10:52;;;;;;;5.00;3.50;;;-2.50;99.90;;;;;;5030918;28;20217;-76
2024/01/28 06:13:19;;;;;;;4.45;4.03;;;-2.50;99.90;;;;;;5031019;28;20231;-76
2024/01/28 06:15:46;;;;;;;2.50;2.30;;;-2.50;99.90;;;;;;5030979;28;20217;-76
2024/01/28 06:18:13;;;;;;;3.25;2.92;;;-2.50;99.90;;;;;;5031045;28;20279;-76
2024/01/28 06:20:39;;;;;;;5.05;2.58;;;-2.50;99.90;;;;;;5030498;28;20226;-76
2024/01/28 06:23:06;;;;;;;5.63;2.15;;;-2.50;99.90;;;;;;5030793;28;20707;-76
2024/01/28 06:25:34;;;;;;;9.95;2.50;;;-2.50;99.90;;;;;;5034144;28;20202;-76
2024/01/28 06:28:02;;;;;;;3.28;2.88;;;-2.50;99.90;;;;;;5034562;28;20209;-76
2024/01/28 06:30:32;;;;;;;3.80;2.83;;;-2.50;99.90;;;;;;5034785;28;20213;-75
2024/01/28 06:32:58;;;;;;;2.65;1.80;;;-2.50;99.90;;;;;;5034261;28;20226;-75
2024/01/28 06:35:25;;;;;;;6.80;2.38;;;-2.40;99.90;;;;;;5033995;28;20202;-75
2024/01/28 06:37:52;;;;;;;3.65;2.42;;;-2.30;99.90;;;;;;5034219;28;20221;-75
2024/01/28 06:40:19;;;;;;;3.10;2.38;;;-2.20;99.90;;;;;;5034019;28;20220;-75
2024/01/28 06:42:47;;;;;;;6.75;2.75;;;-2.00;99.90;;;;;;5034278;28;20233;-75
2024/01/28 06:45:14;;;;;;;3.58;1.67;;;-2.10;99.90;;;;;;5033965;28;20208;-75
2024/01/28 06:47:42;;;;;;;7.78;3.53;;;-2.20;99.90;;;;;;5034201;28;20206;-75
2024/01/28 06:50:09;;;;;;;4.45;3.50;;;-2.20;99.90;;;;;;5033969;28;20220;-75
2024/01/28 06:52:36;;;;;;;5.63;2.85;;;-2.30;99.90;;;;;;5034045;28;20230;-75
2024/01/28 06:55:05;;;;;;;4.45;2.22;;;-2.40;99.90;;;;;;5033834;28;20591;-75
2024/01/28 06:57:32;;;;;;;12.20;4.55;;;-2.50;99.90;;;;;;5034031;28;20257;-75
2024/01/28 07:00:00;;;;;;;3.67;2.13;;;-2.50;99.90;;;;;;5033648;28;20667;-74
2024/01/28 07:02:26;;;;;;;5.53;2.83;;;-2.50;99.90;;;;;;5033826;28;20222;-75
2024/01/28 07:04:54;;;;;;;4.47;2.67;;;-2.50;99.90;;;;;;5033768;28;20205;-75
2024/01/28 07:07:21;;;;;;;2.85;2.20;;;-2.60;99.90;;;;;;5033822;28;20209;-76
2024/01/28 07:09:47;;;;;;;2.67;2.25;;;-2.50;99.90;;;;;;5033475;28;20304;-75
2024/01/28 07:12:14;;;;;;;4.72;4.22;;;-2.50;99.90;;;;;;5033398;28;20308;-75
2024/01/28 07:14:42;;;;;;;6.15;3.83;;;-2.50;99.90;;;;;;5033574;28;20237;-76
2024/01/28 07:17:10;;;;;;;9.75;3.28;;;-2.50;99.90;;;;;;5033268;28;20279;-76
2024/01/28 07:19:37;;;;;;;5.50;2.83;;;-2.50;99.90;;;;;;5033272;28;20675;-76
2024/01/28 07:22:05;;;;;;;6.25;3.60;;;-2.50;99.90;;;;;;5033572;28;20262;-76
2024/01/28 07:24:31;;;;;;;3.40;2.28;;;-2.50;99.90;;;;;;5034342;28;20205;-76
2024/01/28 07:26:58;;;;;;;3.72;2.55;;;-2.40;99.90;;;;;;5034244;28;20202;-76
2024/01/28 07:29:25;;;;;;;3.58;2.03;;;-2.40;99.90;;;;;;5034463;28;20221;-76
2024/01/28 07:31:52;;;;;;;5.15;3.40;;;-2.40;99.90;;;;;;5032989;28;20213;-76
2024/01/28 07:34:23;;;;;;;5.00;3.70;;;-2.40;99.90;;;;;;5032812;28;20268;-76
2024/01/28 07:36:51;;;;;;;1.80;1.65;;;-2.30;99.90;;;;;;5032938;28;20226;-76
2024/01/28 07:39:18;;;;;;;7.07;3.30;;;-2.30;99.90;;;;;;5033089;28;20209;-76
2024/01/28 07:41:44;;;;;;;3.03;2.58;;;-2.20;99.90;;;;;;5033071;28;20206;-76
2024/01/28 07:44:11;;;;;;;2.88;2.53;;;-2.20;99.90;;;;;;5033024;28;20206;-76
2024/01/28 07:46:38;;;;;;;3.42;3.13;;;-2.20;99.90;;;;;;5032695;28;20210;-76
2024/01/28 07:49:05;;;;;;;5.97;2.78;;;-2.10;99.90;;;;;;5033206;28;20206;-76
2024/01/28 07:51:33;;;;;;;3.90;3.08;;;-2.00;99.90;;;;;;5033049;28;20238;-76
2024/01/28 07:54:00;;;;;;;5.45;3.17;;;-2.00;99.90;;;;;;5032902;28;20233;-75
2024/01/28 07:56:26;;;;;;;3.03;2.70;;;-1.90;99.90;;;;;;5032530;28;20206;-75
2024/01/28 07:58:53;;;;;;;2.28;1.85;;;-1.90;99.90;;;;;;5032986;28;20296;-76
2024/01/28 08:01:20;;;;;;;3.10;2.90;;;-1.80;99.90;;;;;;5032632;28;20212;-76
2024/01/28 08:03:46;;;;;;;3.30;2.50;;;-1.40;99.90;;;;;;5032934;28;20241;-76
2024/01/28 08:06:13;;;;;;;4.15;2.47;;;-0.60;99.90;;;;;;5032186;28;20214;-76
2024/01/28 08:08:41;;;;;;;4.45;2.85;;;0.40;99.90;;;;;;5032762;28;20271;-76
2024/01/28 08:11:08;;;;;;;6.05;2.97;;;1.30;99.90;;;;;;5032543;28;20228;-76
2024/01/28 08:13:35;;;;;;;3.58;3.17;;;2.00;99.90;;;;;;5032351;28;20234;-76
2024/01/28 08:16:03;;;;;;;3.60;2.70;;;2.60;99.90;;;;;;5032098;28;20230;-76
2024/01/28 08:18:30;;;;;;;8.68;4.88;;;3.10;99.90;;;;;;5032421;28;20227;-76
2024/01/28 08:20:57;;;;;;;6.35;4.05;;;3.40;99.90;;;;;;5032178;28;20228;-74
2024/01/28 08:23:25;;;;;;;4.32;2.45;;;3.70;99.90;;;;;;5031271;28;20228;-75
2024/01/28 08:25:54;;;;;;;3.97;3.00;;;3.90;99.90;;;;;;5029469;28;20206;-75
2024/01/28 08:28:21;;;;;;;4.50;2.80;;;4.20;99.90;;;;;;5030933;28;20592;-75
2024/01/28 08:30:48;;;;;;;3.67;2.85;;;4.80;99.90;;;;;;5030793;28;20202;-74
2024/01/28 08:33:15;;;;;;;5.25;3.30;;;5.70;99.90;;;;;;5031122;28;20313;-75
2024/01/28 08:35:41;;;;;;;4.30;3.38;;;6.70;99.90;;;;;;5031241;28;20604;-75
2024/01/28 08:38:07;;;;;;;4.10;3.10;;;7.80;99.90;;;;;;5030818;28;20321;-75
2024/01/28 08:40:34;;;;;;;4.75;3.38;;;8.80;99.90;;;;;;5031515;28;20586;-75
2024/01/28 08:43:04;;;;;;;4.75;3.40;;;9.50;99.90;;;;;;5031047;28;20239;-75
2024/01/28 08:45:31;;;;;;;3.85;3.47;;;10.20;99.90;;;;;;5031399;28;20209;-75
2024/01/28 08:47:57;;;;;;;4.95;3.33;;;11.00;99.90;;;;;;5029967;28;20209;-75
2024/01/28 08:50:24;;;;;;;5.70;4.22;;;11.80;99.90;;;;;;5031367;28;20214;-75
2024/01/28 08:52:51;;;;;;;5.45;3.90;;;12.80;99.90;;;;;;5030771;28;20230;-75
2024/01/28 08:55:18;;;;;;;4.57;4.05;;;13.90;99.90;;;;;;5031013;28;20211;-75
2024/01/28 08:57:45;;;;;;;8.05;5.40;;;14.70;99.00;;;;;;5030870;28;20232;-74
2024/01/28 09:00:14;;;;;;;5.85;4.50;;;15.30;97.60;;;;;;5030849;28;20235;-76
2024/01/28 09:02:41;;;;;;;4.30;3.90;;;16.00;96.70;;;;;;5031076;28;20233;-76
2024/01/28 09:05:10;;;;;;;8.80;4.53;;;16.80;95.80;;;;;;5027893;28;20459;-76
2024/01/28 09:07:36;;;;;;;6.70;4.73;;;18.10;94.70;;;;;;5026321;28;20456;-76
2024/01/28 09:10:04;;;;;;;4.73;4.33;;;19.30;93.20;;;;;;5029209;28;20471;-77
2024/01/28 09:12:30;;;;;;;5.63;4.57;;;20.60;91.60;;;;;;5028675;28;20481;-76
2024/01/28 09:14:57;;;;;;;4.43;4.03;;;21.80;89.90;;;;;;5024143;28;22163;-77
2024/01/28 09:17:29;;;;;;;6.80;3.90;;;22.80;86.60;;;;;;5030928;28;20992;-77
2024/01/28 09:19:58;;;;;;;4.50;4.10;;;23.80;84.10;;;;;;5032138;28;20904;-77
2024/01/28 09:22:27;;;;;;;4.47;3.80;;;24.50;82.20;;;;;;5033494;28;20542;-77
2024/01/28 09:24:54;;;;;;;4.40;4.00;;;25.10;80.50;;;;;;5020466;28;21138;-75
2024/01/28 09:27:23;;;;;;;5.13;4.23;;;25.50;78.60;;;;;;5027001;28;20463;-76
2024/01/28 09:29:50;;;;;;;3.73;3.23;;;25.80;78.60;;;;;;5024558;28;20532;-76
2024/01/28 09:32:18;;;;;;;4.55;4.10;;;25.80;76.90;;;;;;5025832;28;20460;-77
2024/01/28 09:34:46;;;;;;;4.50;4.10;;;25.60;76.30;;;;;;5028863;28;20457;-77
2024/01/28 09:37:13;;;;;;;6.80;4.57;;;24.60;77.60;;;;;;5030039;28;20245;-77
2024/01/28 09:39:40;;;;;;;4.63;4.20;;;24.00;79.00;;;;;;5030270;28;20848;-77
2024/01/28 09:42:12;;;;;;;6.27;4.90;;;23.60;77.70;;;;;;5032846;28;20492;-78
2024/01/28 09:44:39;;;;;;;5.17;4.67;;;23.40;79.00;;;;;;5030244;28;20976;-79
2024/01/28 09:47:07;;;;;;;4.93;4.30;;;23.20;77.80;;;;;;5031760;28;20514;-78
2024/01/28 09:49:39;;;;;;;5.27;4.70;;;23.30;78.60;;;;;;5030530;28;20493;-77
2024/01/28 09:52:10;;;;;;;5.70;4.90;;;23.50;79.50;;;;;;5030215;28;20495;-77
2024/01/28 09:54:37;;;;;;;5.43;4.90;;;22.90;78.20;;;;;;5030242;28;20453;-78
2024/01/28 09:57:06;;;;;;;7.50;4.90;;;22.20;78.70;;;;;;5030578;28;20468;-77
2024/01/28 09:59:35;;;;;;;5.50;5.00;;;21.90;80.00;;;;;;5032297;28;20470;-77
2024/01/28 10:02:03;;;;;;;5.40;4.87;;;21.70;80.50;;;;;;5034239;28;21005;-77
2024/01/28 10:04:30;;;;;;;5.23;4.43;;;22.10;79.80;;;;;;5034652;28;20464;-78
2024/01/28 10:06:58;;;;;;;6.60;6.00;;;22.50;80.00;;;;;;5035535;28;20474;-78
2024/01/28 10:09:26;;;;;;;6.90;5.93;;;22.90;79.00;;;;;;5034146;28;20464;-78
2024/01/28 10:11:53;;;;;;;7.13;6.50;;;23.50;79.40;;;;;;5034411;28;20467;-76
2024/01/28 10:14:21;;;;;;;5.47;4.97;;;23.60;80.70;;;;;;5033411;28;20471;-77
2024/01/28 10:16:49;;;;;;;6.13;5.20;;;23.70;78.60;;;;;;5033854;28;20490;-76
2024/01/28 10:19:16;;;;;;;5.70;4.40;;;23.60;78.90;;;;;;5032627;28;21009;-76
2024/01/28 10:21:43;;;;;;;5.20;4.70;;;23.50;79.40;;;;;;5034380;28;20475;-77
2024/01/28 10:24:11;;;;;;;6.30;4.97;;;23.20;79.10;;;;;;5033271;28;20522;-77
2024/01/28 10:26:39;;;;;;;6.70;5.93;;;23.30;79.30;;;;;;5033633;28;20843;-77
2024/01/28 10:29:27;;;;;;;6.60;5.63;;;23.00;78.40;;;;;;5032980;28;20464;-77
2024/01/28 10:32:06;;;;;;;5.77;5.27;;;23.20;78.30;;;;;;5033827;28;20464;-78
2024/01/28 10:34:37;;;;;;;6.80;5.00;;;23.30;78.90;;;;;;5032597;28;20464;-78
2024/01/28 10:37:06;;;;;;;5.97;4.97;;;23.30;79.30;;;;;;5034777;28;20465;-78
2024/01/28 10:39:40;;;;;;;5.70;5.10;;;23.70;79.40;;;;;;5032756;28;20514;-77
2024/01/28 10:42:31;;;;;;;5.40;4.90;;;23.90;78.00;;;;;;5034810;28;20511;-78
2024/01/28 10:45:18;;;;;;;6.37;5.30;;;23.30;78.80;;;;;;5033981;28;20453;-78
2024/01/28 10:47:57;;;;;;;6.40;5.73;;;23.40;78.10;;;;;;5034213;28;20856;-78
2024/01/28 10:50:33;;;;;;;11.80;5.13;;;23.30;79.40;;;;;;5033835;28;20530;-78
2024/01/28 10:53:08;;;;;;;6.90;4.90;;;23.80;80.20;;;;;;5033643;28;20490;-77
2024/01/28 10:55:39;;;;;;;5.87;4.97;;;24.00;80.10;;;;;;5033795;28;20543;-77
2024/01/28 10:58:12;;;;;;;6.57;5.30;;;24.00;78.80;;;;;;5033439;28;20456;-77
2024/01/28 11:00:40;;;;;;;6.80;4.97;;;24.20;78.50;;;;;;5033544;28;20457;-77
2024/01/28 11:03:08;;;;;;;6.50;5.40;;;24.10;78.60;;;;;;5033056;28;20571;-75
2024/01/28 11:05:37;;;;;;;5.30;4.90;;;24.00;77.80;;;;;;5033272;28;20456;-79
2024/01/28 11:08:07;;;;;;;4.57;4.17;;;24.30;77.50;;;;;;5033597;28;20480;-78
2024/01/28 11:20:34;;;;;;;13.13;4.53;;;25.00;75.20;;;;;;5026224;28;20472;-78
2024/01/28 11:23:22;;;;;;;4.83;4.20;;;24.80;75.20;;;;;;5027554;28;20849;-79
2024/01/28 11:26:10;;;;;;;4.40;3.67;;;24.90;75.80;;;;;;5035193;28;20474;-79
2024/01/28 11:31:46;;;;;;;4.40;4.00;;;25.60;74.60;;;;;;4933404;29;21478;-79
2024/01/28 11:34:14;;;;;;;4.40;4.00;;;25.90;73.20;;;;;;5013604;28;20460;-81
2024/01/28 11:36:44;;;;;;;5.00;3.53;;;26.10;74.20;;;;;;5032985;28;20530;-80
2024/01/28 11:39:13;;;;;;;4.60;4.13;;;26.10;73.40;;;;;;5033147;28;20950;-77
2024/01/28 11:41:42;;;;;;;3.97;3.67;;;26.20;72.40;;;;;;5032373;28;20460;-79
2024/01/28 11:44:10;;;;;;;4.50;3.90;;;26.60;72.40;;;;;;5031166;28;20457;-79
2024/01/28 11:46:38;;;;;;;4.13;3.73;;;26.80;72.00;;;;;;5033605;28;20471;-79
2024/01/28 11:49:06;;;;;;;6.77;5.30;;;27.00;70.40;;;;;;5036444;28;20492;-79
2024/01/28 11:51:34;;;;;;;5.30;4.00;;;26.80;71.30;;;;;;5033851;28;20464;-79
2024/01/28 11:54:01;;;;;;;4.70;4.17;;;26.80;71.90;;;;;;5033941;28;20487;-79
2024/01/28 11:56:29;;;;;;;3.90;3.57;;;26.30;71.40;;;;;;5033755;28;20467;-80
2024/01/28 11:58:56;;;;;;;4.40;4.00;;;25.80;72.10;;;;;;5033849;28;20880;-79
2024/01/28 12:01:25;;;;;;;4.60;4.20;;;25.10;73.10;;;;;;5035439;28;20487;-80
2024/01/28 12:03:54;;;;;;;4.13;3.73;;;24.80;72.70;;;;;;5036238;28;20484;-80
2024/01/28 12:06:21;;;;;;;4.90;4.00;;;24.10;73.00;;;;;;5035370;28;20526;-80
2024/01/28 12:08:48;;;;;;;4.97;4.47;;;23.70;74.60;;;;;;5036453;28;20492;-79
2024/01/28 12:11:17;;;;;;;5.33;4.20;;;24.00;74.50;;;;;;5035629;28;20460;-79
2024/01/28 12:13:44;;;;;;;6.40;4.43;;;24.20;74.20;;;;;;5036218;28;20494;-79
2024/01/28 12:16:11;;;;;;;4.90;4.33;;;24.20;73.10;;;;;;5035634;28;20557;-79
2024/01/28 12:18:41;;;;;;;4.63;4.10;;;24.00;73.70;;;;;;5035634;28;20461;-79
2024/01/28 12:21:17;;;;;;;5.53;4.40;;;24.00;73.50;;;;;;5036346;28;20476;-80
2024/01/28 12:23:45;;;;;;;4.27;3.87;;;23.70;74.30;;;;;;5035745;28;20484;-79
2024/01/28 12:26:12;;;;;;;5.13;4.10;;;23.10;73.90;;;;;;5035898;28;20471;-78
2024/01/28 12:28:40;;;;;;;4.77;4.07;;;22.70;75.00;;;;;;5035829;28;20496;-79
2024/01/28 12:31:09;;;;;;;4.13;3.73;;;22.30;74.60;;;;;;5033911;28;20460;-79
2024/01/28 12:33:36;;;;;;;4.23;3.80;;;21.70;76.40;;;;;;5034223;28;20480;-80
2024/01/28 12:36:04;;;;;;;5.00;4.33;;;20.80;77.90;;;;;;5030491;28;20461;-75
2024/01/28 12:38:31;;;;;;;4.23;3.93;;;20.30;79.10;;;;;;5032252;28;20460;-78
2024/01/28 12:40:58;;;;;;;4.10;3.70;;;20.30;78.10;;;;;;5031644;28;20463;-76
2024/01/28 12:43:25;;;;;;;5.23;4.70;;;20.20;78.40;;;;;;5031226;28;20553;-76
2024/01/28 12:45:52;;;;;;;4.43;4.03;;;20.00;79.30;;;;;;5031097;28;20459;-78
2024/01/28 12:48:19;;;;;;;4.63;4.23;;;19.70;79.20;;;;;;5032566;28;20497;-77
2024/01/28 12:50:46;;;;;;;5.83;3.90;;;19.30;80.10;;;;;;5031867;28;20492;-76
2024/01/28 12:53:14;;;;;;;7.60;4.93;;;18.90;80.60;;;;;;5032433;28;20848;-78
2024/01/28 12:55:42;;;;;;;5.20;4.70;;;18.70;81.20;;;;;;5035199;28;20836;-78
2024/01/28 12:58:08;;;;;;;5.50;4.70;;;18.60;83.20;;;;;;5030993;28;20821;-77
2024/01/28 13:00:35;;;;;;;5.50;4.97;;;18.50;83.00;;;;;;5030418;28;20469;-78
2024/01/28 13:03:02;;;;;;;5.03;4.53;;;18.40;83.50;;;;;;5031720;28;20484;-79
2024/01/28 13:05:29;;;;;;;6.40;5.73;;;18.50;83.70;;;;;;5034896;28;20563;-78